Aviation Digital Data Service (ADDS)

Output produced by METARs form (0010 UTC 19 August 2019)
found at http://www.aviationweather.gov/metar/data/
 
Forecast for: COR
Text: TAF COR LTCI 182240Z 1900/1909 VRB02KT CAVOK
Forecast period: 0000 to 0600 UTC 19 August 2019
Forecast type: FROM: standard forecast or significant change
Winds: variable direction winds at 2 MPH (2 knots; 1.0 m/s)
Visibility: 6 or more miles 10+ km)
Ceiling: unknown
Clouds: missing
Weather: NSW  (no significant weather)
Text: BECMG 1906/1908 30012KT
Forecast period: 0600 to 0800 UTC 19 August 2019
Forecast type: BECOMING: Conditions expected to become as follows by 0800 UTC 19 August 2019
Winds: from the WNW (300 degrees) at 14 MPH (12 knots; 6.2 m/s)
Visibility: 6 or more miles 10+ km)
Ceiling: unknown
Clouds: missing
Weather: NSW  (no significant weather)
Text: BECMG 1908/1909 FEW040
Forecast period: 0800 to 0900 UTC 19 August 2019
Forecast type: BECOMING: Conditions expected to become as follows by 0900 UTC 19 August 2019
Winds: from the WNW (300 degrees) at 14 MPH (12 knots; 6.2 m/s)
Visibility: 6 or more miles 10+ km)
Ceiling: at least 12,000 feet AGL
Clouds: few clouds at 4000 feet AGL
Weather: NSW  (no significant weather)